createdAt,value
2023-04-02T00:00:03.887Z,67.65
2023-04-02T00:02:56.463Z,67.45
2023-04-02T00:05:31.436Z,67.13
2023-04-02T00:08:03.807Z,65.32
2023-04-02T00:10:32.771Z,66.70
2023-04-02T00:13:05.135Z,66.25
2023-04-02T00:15:32.577Z,66.85
2023-04-02T00:18:00.657Z,67.04
2023-04-02T00:20:30.033Z,64.95
2023-04-02T00:22:57.086Z,64.78
2023-04-02T00:25:27.034Z,65.38
2023-04-02T00:27:54.584Z,65.94
2023-04-02T00:30:21.858Z,64.87
2023-04-02T00:32:49.368Z,64.08
2023-04-02T00:35:28.449Z,65.81
2023-04-02T00:37:56.504Z,65.73
2023-04-02T00:40:29.329Z,65.28
2023-04-02T00:42:59.779Z,67.72
2023-04-02T00:45:30.947Z,67.50
2023-04-02T00:48:01.166Z,68.71
2023-04-02T00:50:34.999Z,67.29
2023-04-02T00:53:10.577Z,67.54
2023-04-02T00:55:40.438Z,67.02
2023-04-02T00:58:22.203Z,68.63
2023-04-02T01:00:50.844Z,67.10
2023-04-02T01:03:17.539Z,67.39
2023-04-02T01:05:51.315Z,66.38
2023-04-02T01:08:31.289Z,65.93
2023-04-02T01:11:17.011Z,66.72
2023-04-02T01:13:56.973Z,65.49
2023-04-02T01:16:27.293Z,66.07
2023-04-02T01:19:10.020Z,65.63
2023-04-02T01:21:46.079Z,66.51
2023-04-02T01:24:14.555Z,65.68
2023-04-02T01:26:58.741Z,64.50
2023-04-02T01:29:45.496Z,64.14
2023-04-02T01:32:15.581Z,64.25
2023-04-02T01:34:45.783Z,65.10
2023-04-02T01:37:32.357Z,64.61
2023-04-02T01:40:31.215Z,65.28
2023-04-02T01:43:28.447Z,65.54
2023-04-02T01:45:58.623Z,66.90
2023-04-02T01:48:30.146Z,65.26
2023-04-02T01:50:59.387Z,64.86
2023-04-02T01:53:29.681Z,65.36
2023-04-02T01:56:01.924Z,65.04
2023-04-02T01:58:32.060Z,65.93
2023-04-02T02:01:19.238Z,65.84
2023-04-02T02:03:50.825Z,65.58
2023-04-02T02:06:19.683Z,67.06
2023-04-02T02:09:03.901Z,65.17
2023-04-02T02:11:33.849Z,64.84
2023-04-02T02:14:05.554Z,65.58
2023-04-02T02:16:41.749Z,64.60
2023-04-02T02:19:17.385Z,65.69
2023-04-02T02:21:48.824Z,65.49
2023-04-02T02:24:31.665Z,64.48
2023-04-02T02:27:21.912Z,63.32
2023-04-02T02:30:02.003Z,63.03
2023-04-02T02:32:32.810Z,63.44
2023-04-02T02:35:12.783Z,62.45
2023-04-02T02:37:44.926Z,62.86
2023-04-02T02:40:24.173Z,63.80
2023-04-02T02:43:08.659Z,63.80
2023-04-02T02:45:38.914Z,64.69
2023-04-02T02:48:12.817Z,65.89
2023-04-02T02:50:41.248Z,64.60
2023-04-02T02:53:21.377Z,65.62
2023-04-02T02:55:54.272Z,64.45
2023-04-02T02:58:27.956Z,62.05
2023-04-02T03:01:05.259Z,62.54
2023-04-02T03:03:35.164Z,62.94
2023-04-02T03:06:09.135Z,63.04
2023-04-02T03:09:09.453Z,63.85
2023-04-02T03:11:49.723Z,62.96
2023-04-02T03:14:35.524Z,62.17
2023-04-02T03:17:27.913Z,61.19
2023-04-02T03:20:11.036Z,61.53
2023-04-02T03:22:47.326Z,62.08
2023-04-02T03:25:17.174Z,62.39
2023-04-02T03:27:47.431Z,60.86
2023-04-02T03:30:34.768Z,62.04
2023-04-02T03:33:13.711Z,62.97
2023-04-02T03:35:47.198Z,62.76
2023-04-02T03:38:20.641Z,63.60
2023-04-02T03:41:02.186Z,64.56
2023-04-02T03:43:42.338Z,63.83
2023-04-02T03:46:34.201Z,64.16
2023-04-02T03:49:11.466Z,62.35
2023-04-02T03:51:47.098Z,63.14
2023-04-02T03:54:16.776Z,61.74
2023-04-02T03:56:47.492Z,62.57
2023-04-02T03:59:31.977Z,62.14
2023-04-02T04:02:33.694Z,63.09
2023-04-02T04:05:03.581Z,64.13
2023-04-02T04:07:41.538Z,62.94
2023-04-02T04:10:17.097Z,63.62
2023-04-02T04:12:47.784Z,63.07
2023-04-02T04:15:33.468Z,62.39
2023-04-02T04:18:21.589Z,63.59
2023-04-02T04:20:58.420Z,64.14
2023-04-02T04:23:41.182Z,62.89
2023-04-02T04:26:36.244Z,62.25
2023-04-02T04:29:33.160Z,63.06
2023-04-02T04:32:34.148Z,63.43
2023-04-02T04:35:26.700Z,63.70
2023-04-02T04:38:12.113Z,64.26
2023-04-02T04:40:54.351Z,64.28
2023-04-02T04:43:51.041Z,63.46
2023-04-02T04:46:28.660Z,65.16
2023-04-02T04:49:09.964Z,64.34
2023-04-02T04:52:01.830Z,64.16
2023-04-02T04:54:29.933Z,64.33
2023-04-02T04:57:03.127Z,65.60
2023-04-02T04:59:43.049Z,63.91
2023-04-02T05:02:16.526Z,63.31
2023-04-02T05:04:50.114Z,62.56
2023-04-02T05:07:26.438Z,64.15
2023-04-02T05:10:00.787Z,63.66
2023-04-02T05:12:38.341Z,65.20
2023-04-02T05:15:27.911Z,64.31
2023-04-02T05:18:21.198Z,63.91
2023-04-02T05:20:54.705Z,65.05
2023-04-02T05:23:28.120Z,63.38
2023-04-02T05:26:06.931Z,65.34
2023-04-02T05:28:39.268Z,63.19
2023-04-02T05:31:15.058Z,62.99
2023-04-02T05:33:46.434Z,62.62
2023-04-02T05:36:22.405Z,62.95
2023-04-02T05:38:54.548Z,63.68
2023-04-02T05:41:32.712Z,64.53
2023-04-02T05:44:08.183Z,63.00
2023-04-02T05:46:43.545Z,64.52
2023-04-02T05:49:21.538Z,63.86
2023-04-02T05:51:52.559Z,63.34
2023-04-02T05:54:27.116Z,64.04
2023-04-02T05:57:03.029Z,64.63
2023-04-02T05:59:34.286Z,63.49
2023-04-02T06:02:19.945Z,62.89
2023-04-02T06:04:55.640Z,62.48
2023-04-02T06:07:33.163Z,63.79
2023-04-02T06:10:00.647Z,63.50
2023-04-02T06:12:30.882Z,63.94
2023-04-02T06:15:00.193Z,65.28
2023-04-02T06:17:30.631Z,63.21
2023-04-02T06:20:01.213Z,63.22
2023-04-02T06:22:39.572Z,63.26
2023-04-02T06:25:28.005Z,61.28
2023-04-02T06:27:58.541Z,62.18
2023-04-02T06:30:33.246Z,62.07
2023-04-02T06:33:01.238Z,60.83
2023-04-02T06:35:29.354Z,62.61
2023-04-02T06:38:03.546Z,61.25
2023-04-02T06:40:51.459Z,61.82
2023-04-02T06:44:06.257Z,61.89
2023-04-02T06:47:20.689Z,60.64
2023-04-02T06:49:56.859Z,62.37
2023-04-02T06:52:24.660Z,62.94
2023-04-02T06:54:51.602Z,61.92
2023-04-02T06:57:18.361Z,62.40
2023-04-02T06:59:47.829Z,61.66
2023-04-02T07:02:30.899Z,60.56
2023-04-02T07:05:04.142Z,62.25
2023-04-02T07:07:32.755Z,62.21
2023-04-02T07:10:03.038Z,60.81
2023-04-02T07:12:29.955Z,61.69
2023-04-02T07:14:56.822Z,59.84
2023-04-02T07:17:24.259Z,60.02
2023-04-02T07:19:50.994Z,61.07
2023-04-02T07:22:20.808Z,61.60
2023-04-02T07:24:54.290Z,59.74
2023-04-02T07:27:20.985Z,59.35
2023-04-02T07:29:47.760Z,60.45
2023-04-02T07:32:14.606Z,59.50
2023-04-02T07:34:41.796Z,59.78
2023-04-02T07:37:13.117Z,59.93
2023-04-02T07:39:40.767Z,57.78
2023-04-02T07:42:08.053Z,57.94
2023-04-02T07:44:34.903Z,57.15
2023-04-02T07:47:01.700Z,57.71
2023-04-02T07:49:29.271Z,57.92
2023-04-02T07:51:56.551Z,57.95
2023-04-02T07:54:23.197Z,55.61
2023-04-02T07:56:49.831Z,56.60
2023-04-02T07:59:17.289Z,56.31
2023-04-02T08:01:44.057Z,55.52
2023-04-02T08:04:20.012Z,57.62
2023-04-02T08:06:48.081Z,56.18
2023-04-02T08:09:18.181Z,56.03
2023-04-02T08:11:46.762Z,57.08
2023-04-02T08:14:14.115Z,55.63
2023-04-02T08:16:53.213Z,55.23
2023-04-02T08:19:20.659Z,56.71
2023-04-02T08:21:52.854Z,55.83
2023-04-02T08:24:19.676Z,55.40
2023-04-02T08:27:01.572Z,55.55
2023-04-02T08:29:32.204Z,55.29
2023-04-02T08:32:00.963Z,56.17
2023-04-02T08:34:28.455Z,55.09
2023-04-02T08:36:59.131Z,55.44
2023-04-02T08:39:29.342Z,55.36
2023-04-02T08:42:06.094Z,54.44
2023-04-02T08:45:23.666Z,55.81
2023-04-02T08:47:56.667Z,54.84
2023-04-02T08:50:39.535Z,56.52
2023-04-02T08:53:14.236Z,57.28
2023-04-02T08:55:55.728Z,55.47
2023-04-02T08:58:37.789Z,55.14
2023-04-02T09:01:08.216Z,55.75
2023-04-02T09:03:52.840Z,56.43
2023-04-02T09:06:21.972Z,54.62
2023-04-02T09:08:51.742Z,54.52
2023-04-02T09:11:21.637Z,54.31
2023-04-02T09:14:00.680Z,55.41
2023-04-02T09:16:45.124Z,54.89
2023-04-02T09:19:26.992Z,55.45
2023-04-02T09:22:31.719Z,55.08
2023-04-02T09:25:06.511Z,55.51
2023-04-02T09:27:36.682Z,55.88
2023-04-02T09:30:21.722Z,56.91
2023-04-02T09:32:49.930Z,55.62
2023-04-02T09:35:36.591Z,55.03
2023-04-02T09:38:37.515Z,54.32
2023-04-02T09:41:06.741Z,54.84
2023-04-02T09:43:38.447Z,54.85
2023-04-02T09:46:24.400Z,55.27
2023-04-02T09:48:59.324Z,53.64
2023-04-02T09:51:29.814Z,52.96
2023-04-02T09:54:02.502Z,53.09
2023-04-02T09:56:34.863Z,53.13
2023-04-02T09:59:06.050Z,53.20
2023-04-02T10:01:34.197Z,54.32
2023-04-02T10:04:03.509Z,53.78
2023-04-02T10:06:31.855Z,54.05
2023-04-02T10:08:58.664Z,54.05
2023-04-02T10:11:46.293Z,54.44
2023-04-02T10:14:24.128Z,53.45
2023-04-02T10:16:58.052Z,53.90
2023-04-02T10:19:31.426Z,53.80
2023-04-02T10:22:00.833Z,54.07
2023-04-02T10:24:28.776Z,54.63
2023-04-02T10:27:42.846Z,54.30
2023-04-02T10:30:10.287Z,53.02
2023-04-02T10:32:45.954Z,53.03
2023-04-02T10:35:24.120Z,53.33
2023-04-02T10:38:02.957Z,54.37
2023-04-02T10:41:01.541Z,55.13
2023-04-02T10:43:31.375Z,53.59
2023-04-02T10:46:12.648Z,53.13
2023-04-02T10:49:01.000Z,53.38
2023-04-02T10:51:34.108Z,54.07
2023-04-02T10:54:10.057Z,53.94
2023-04-02T10:56:47.790Z,53.84
2023-04-02T10:59:23.264Z,53.05
2023-04-02T11:01:52.140Z,54.23
2023-04-02T11:04:38.315Z,51.92
2023-04-02T11:07:17.217Z,51.01
2023-04-02T11:09:48.662Z,52.12
2023-04-02T11:12:42.039Z,52.09
2023-04-02T11:15:18.047Z,51.44
2023-04-02T11:17:45.851Z,52.09
2023-04-02T11:20:49.748Z,52.63
2023-04-02T11:23:22.355Z,50.52
2023-04-02T11:25:49.371Z,51.34
2023-04-02T11:28:30.834Z,50.63
2023-04-02T11:30:58.148Z,51.47
2023-04-02T11:33:38.092Z,50.48
2023-04-02T11:36:43.978Z,52.08
2023-04-02T11:39:17.420Z,52.18
2023-04-02T11:42:01.084Z,50.89
2023-04-02T11:44:28.039Z,51.75
2023-04-02T11:47:21.979Z,50.76
2023-04-02T11:49:55.361Z,49.90
2023-04-02T11:52:35.131Z,50.53
2023-04-02T11:55:27.526Z,50.81
2023-04-02T11:58:22.779Z,50.49
2023-04-02T12:01:18.717Z,49.66
2023-04-02T12:04:23.013Z,50.04
2023-04-02T12:07:12.839Z,49.03
2023-04-02T12:09:55.153Z,50.71
2023-04-02T12:12:39.407Z,49.21
2023-04-02T12:15:27.634Z,48.48
2023-04-02T12:18:06.240Z,49.63
2023-04-02T12:20:34.738Z,49.09
2023-04-02T12:23:02.200Z,50.36
2023-04-02T12:25:40.022Z,49.70
2023-04-02T12:28:09.758Z,49.32
2023-04-02T12:30:37.970Z,49.13
2023-04-02T12:33:20.362Z,49.30
2023-04-02T12:35:53.435Z,49.83
2023-04-02T12:38:24.484Z,49.83
2023-04-02T12:41:05.157Z,49.17
2023-04-02T12:43:37.837Z,48.14
2023-04-02T12:46:06.766Z,48.47
2023-04-02T12:48:35.526Z,48.24
2023-04-02T12:51:04.600Z,48.05
2023-04-02T12:53:40.395Z,47.80
2023-04-02T12:56:11.155Z,48.15
2023-04-02T12:58:41.481Z,46.47
2023-04-02T13:01:27.667Z,47.31
2023-04-02T13:04:06.164Z,46.36
2023-04-02T13:06:35.242Z,46.27
2023-04-02T13:09:05.035Z,45.96
2023-04-02T13:11:37.257Z,46.53
2023-04-02T13:14:06.325Z,46.55
2023-04-02T13:16:36.751Z,47.06
2023-04-02T13:19:17.434Z,47.67
2023-04-02T13:21:45.386Z,47.08
2023-04-02T13:24:21.601Z,47.53
2023-04-02T13:26:49.824Z,46.89
2023-04-02T13:29:28.655Z,45.76
2023-04-02T13:31:59.976Z,45.05
2023-04-02T13:34:27.500Z,45.65
2023-04-02T13:36:56.145Z,45.19
2023-04-02T13:39:24.141Z,45.27
2023-04-02T13:41:59.607Z,43.92
2023-04-02T13:44:29.984Z,44.23
2023-04-02T13:46:57.860Z,43.39
2023-04-02T13:49:25.425Z,43.90
2023-04-02T13:51:57.823Z,45.19
2023-04-02T13:54:37.350Z,43.67
2023-04-02T13:57:04.323Z,44.18
2023-04-02T13:59:31.456Z,44.17
2023-04-02T14:02:06.740Z,44.92
2023-04-02T14:04:38.863Z,43.55
2023-04-02T14:07:24.569Z,43.22
2023-04-02T14:10:12.710Z,44.95
2023-04-02T14:12:45.446Z,44.43
2023-04-02T14:15:45.591Z,43.35
2023-04-02T14:18:30.032Z,43.14
2023-04-02T14:20:59.568Z,42.64
2023-04-02T14:23:53.854Z,42.37
2023-04-02T14:26:49.148Z,42.00
2023-04-02T14:29:44.913Z,41.84
2023-04-02T14:32:17.580Z,42.98
2023-04-02T14:34:52.963Z,41.84
2023-04-02T14:37:38.409Z,41.83
2023-04-02T14:40:27.340Z,41.16
2023-04-02T14:43:07.189Z,41.72
2023-04-02T14:45:58.570Z,40.89
2023-04-02T14:48:45.184Z,40.86
2023-04-02T14:51:12.026Z,42.32
2023-04-02T14:53:50.567Z,41.28
2023-04-02T14:56:21.820Z,40.00
2023-04-02T14:59:07.602Z,40.65
2023-04-02T15:01:40.746Z,40.95
2023-04-02T15:04:14.180Z,40.49
2023-04-02T15:06:46.093Z,40.26
2023-04-02T15:09:27.396Z,41.11
2023-04-02T15:11:59.941Z,42.03
2023-04-02T15:14:48.389Z,41.00
2023-04-02T15:17:15.318Z,41.22
2023-04-02T15:19:43.137Z,40.64
2023-04-02T15:22:28.551Z,41.09
2023-04-02T15:25:11.756Z,41.04
2023-04-02T15:27:57.141Z,40.83
2023-04-02T15:30:29.157Z,41.21
2023-04-02T15:33:24.451Z,39.74
2023-04-02T15:36:16.724Z,40.88
2023-04-02T15:38:57.739Z,41.33
2023-04-02T15:41:27.503Z,41.49
2023-04-02T15:44:15.516Z,40.84
2023-04-02T15:47:10.102Z,40.38
2023-04-02T15:49:51.867Z,40.33
2023-04-02T15:52:44.646Z,41.89
2023-04-02T15:55:25.878Z,41.64
2023-04-02T15:58:20.879Z,41.03
2023-04-02T16:01:04.272Z,41.10
2023-04-02T16:04:00.400Z,41.01
2023-04-02T16:06:32.545Z,41.07
2023-04-02T16:09:07.233Z,40.68
2023-04-02T16:11:34.335Z,41.44
2023-04-02T16:14:33.181Z,41.35
2023-04-02T16:17:23.864Z,41.58
2023-04-02T16:20:28.677Z,41.57
2023-04-02T16:23:21.042Z,41.19
2023-04-02T16:25:56.525Z,41.23
2023-04-02T16:29:00.337Z,41.03
2023-04-02T16:31:46.040Z,41.91
2023-04-02T16:34:22.069Z,41.55
2023-04-02T16:37:13.988Z,41.84
2023-04-02T16:39:52.792Z,41.63
2023-04-02T16:42:34.040Z,41.45
2023-04-02T16:45:19.446Z,42.34
2023-04-02T16:48:16.215Z,41.83
2023-04-02T16:51:19.974Z,41.48
2023-04-02T16:54:05.879Z,41.69
2023-04-02T16:56:56.401Z,41.31
2023-04-02T16:59:51.127Z,41.62
2023-04-02T17:02:43.316Z,42.06
2023-04-02T17:05:36.092Z,42.17
2023-04-02T17:08:18.544Z,42.52
2023-04-02T17:11:01.846Z,42.32
2023-04-02T17:13:37.426Z,42.46
2023-04-02T17:16:24.117Z,42.06
2023-04-02T17:18:59.738Z,42.89
2023-04-02T17:21:28.416Z,42.64
2023-04-02T17:24:00.712Z,41.54
2023-04-02T17:26:31.215Z,42.49
2023-04-02T17:29:00.565Z,42.69
2023-04-02T17:31:34.011Z,42.46
2023-04-02T17:34:08.611Z,42.38
2023-04-02T17:36:42.258Z,42.91
2023-04-02T17:39:18.221Z,43.01
2023-04-02T17:41:50.946Z,42.71
2023-04-02T17:44:42.411Z,42.10
2023-04-02T17:47:33.916Z,42.67
2023-04-02T17:50:23.338Z,42.76
2023-04-02T17:52:53.243Z,42.46
2023-04-02T17:55:32.178Z,43.09
2023-04-02T17:58:51.228Z,43.39
2023-04-02T18:01:37.111Z,43.34
2023-04-02T18:04:24.405Z,43.74
2023-04-02T18:07:03.423Z,42.44
2023-04-02T18:09:47.248Z,42.76
2023-04-02T18:12:23.217Z,43.18
2023-04-02T18:15:22.986Z,43.38
2023-04-02T18:18:25.331Z,42.78
2023-04-02T18:21:04.968Z,43.46
2023-04-02T18:23:59.671Z,43.58
2023-04-02T18:26:39.223Z,43.79
2023-04-02T18:29:22.754Z,43.75
2023-04-02T18:32:33.718Z,43.72
2023-04-02T18:35:31.574Z,44.61
2023-04-02T18:38:17.140Z,45.12
2023-04-02T18:40:53.204Z,43.97
2023-04-02T18:43:34.382Z,44.30
2023-04-02T18:46:19.916Z,44.14
2023-04-02T18:48:59.066Z,44.45
2023-04-02T18:51:28.330Z,44.65
2023-04-02T18:54:14.444Z,45.67
2023-04-02T18:56:42.778Z,45.86
2023-04-02T18:59:12.279Z,46.71
2023-04-02T19:01:44.568Z,45.50
2023-04-02T19:04:17.739Z,46.41
2023-04-02T19:06:49.012Z,46.34
2023-04-02T19:09:23.852Z,46.48
2023-04-02T19:11:53.115Z,46.16
2023-04-02T19:14:23.645Z,46.64
2023-04-02T19:16:54.734Z,45.83
2023-04-02T19:19:28.310Z,46.49
2023-04-02T19:22:13.580Z,46.37
2023-04-02T19:25:08.983Z,46.75
2023-04-02T19:28:13.311Z,47.69
2023-04-02T19:31:17.451Z,47.20
2023-04-02T19:33:56.716Z,47.21
2023-04-02T19:36:58.846Z,47.87
2023-04-02T19:39:47.086Z,47.45
2023-04-02T19:42:33.297Z,46.82
2023-04-02T19:45:00.825Z,47.73
2023-04-02T19:47:27.459Z,47.68
2023-04-02T19:49:55.745Z,47.67
2023-04-02T19:52:22.573Z,47.79
2023-04-02T19:54:49.451Z,47.67
2023-04-02T19:57:17.668Z,49.04
2023-04-02T19:59:44.418Z,48.87
2023-04-02T20:02:11.213Z,48.96
2023-04-02T20:04:38.036Z,49.14
2023-04-02T20:07:05.138Z,48.49
2023-04-02T20:09:32.213Z,48.97
2023-04-02T20:11:58.918Z,48.89
2023-04-02T20:14:25.685Z,48.42
2023-04-02T20:16:52.553Z,48.94
2023-04-02T20:19:20.683Z,48.91
2023-04-02T20:21:47.693Z,49.33
2023-04-02T20:24:14.481Z,48.89
2023-04-02T20:26:41.130Z,49.07
2023-04-02T20:29:07.994Z,49.94
2023-04-02T20:31:34.761Z,50.51
2023-04-02T20:34:03.823Z,51.02
2023-04-02T20:36:31.154Z,51.48
2023-04-02T20:38:58.674Z,51.71
2023-04-02T20:41:26.147Z,51.28
2023-04-02T20:43:53.724Z,51.58
2023-04-02T20:46:20.782Z,51.73
2023-04-02T20:48:47.558Z,50.95
2023-04-02T20:51:15.638Z,50.63
2023-04-02T20:53:43.173Z,50.26
2023-04-02T20:56:12.559Z,50.21
2023-04-02T20:58:40.363Z,50.01
2023-04-02T21:01:11.969Z,49.96
2023-04-02T21:03:40.056Z,49.77
2023-04-02T21:06:13.242Z,50.03
2023-04-02T21:08:39.904Z,50.54
2023-04-02T21:11:06.895Z,49.50
2023-04-02T21:13:38.351Z,49.27
2023-04-02T21:16:12.302Z,49.26
2023-04-02T21:18:39.098Z,49.07
2023-04-02T21:21:06.456Z,48.48
2023-04-02T21:23:34.164Z,48.20
2023-04-02T21:26:04.363Z,48.58
2023-04-02T21:28:31.278Z,48.82
2023-04-02T21:31:11.929Z,48.74
2023-04-02T21:33:41.489Z,48.79
2023-04-02T21:36:11.294Z,48.55
2023-04-02T21:38:52.002Z,49.13
2023-04-02T21:41:24.945Z,49.67
2023-04-02T21:43:54.514Z,50.87
2023-04-02T21:46:28.062Z,50.29
2023-04-02T21:48:57.114Z,49.87
2023-04-02T21:51:26.275Z,49.35
2023-04-02T21:53:56.344Z,49.39
2023-04-02T21:56:26.353Z,50.26
2023-04-02T21:58:53.104Z,50.75
2023-04-02T22:01:27.249Z,50.32
2023-04-02T22:03:59.915Z,51.21
2023-04-02T22:06:28.866Z,51.63
2023-04-02T22:09:01.606Z,51.76
2023-04-02T22:11:32.770Z,53.31
2023-04-02T22:14:00.197Z,51.36
2023-04-02T22:16:29.833Z,51.91
2023-04-02T22:18:58.577Z,52.11
2023-04-02T22:21:25.889Z,50.12
2023-04-02T22:23:52.936Z,50.85
2023-04-02T22:26:20.805Z,51.58
2023-04-02T22:28:47.869Z,51.09
2023-04-02T22:31:27.556Z,51.68
2023-04-02T22:33:55.656Z,52.50
2023-04-02T22:36:23.195Z,51.83
2023-04-02T22:38:50.544Z,52.41
2023-04-02T22:41:25.474Z,52.74
2023-04-02T22:43:52.527Z,51.46
2023-04-02T22:46:20.055Z,55.07
2023-04-02T22:48:49.798Z,53.83
2023-04-02T22:51:18.351Z,53.22
2023-04-02T22:53:45.838Z,53.00
2023-04-02T22:56:14.958Z,51.91
2023-04-02T22:58:42.037Z,50.70
2023-04-02T23:01:10.181Z,51.64
2023-04-02T23:03:36.952Z,51.80
2023-04-02T23:06:07.374Z,51.54
2023-04-02T23:08:36.187Z,51.83
2023-04-02T23:11:06.158Z,52.36
2023-04-02T23:13:33.680Z,53.01
2023-04-02T23:16:02.300Z,53.34
2023-04-02T23:18:31.608Z,52.94
2023-04-02T23:20:58.483Z,53.23
2023-04-02T23:23:26.254Z,52.04
2023-04-02T23:26:24.680Z,53.15
2023-04-02T23:28:51.455Z,53.21
2023-04-02T23:31:21.359Z,52.95
2023-04-02T23:33:48.502Z,53.50
2023-04-02T23:36:22.880Z,53.07
2023-04-02T23:38:55.431Z,52.89
2023-04-02T23:41:24.045Z,53.90
2023-04-02T23:43:51.099Z,54.09
2023-04-02T23:46:17.873Z,54.99
2023-04-02T23:48:45.859Z,56.42
2023-04-02T23:51:13.706Z,55.28
2023-04-02T23:53:40.523Z,55.36
2023-04-02T23:56:07.439Z,54.56
2023-04-02T23:58:34.200Z,55.71
